sensor_id;sensor_type;location;lat;lon;timestamp;P1;durP1;ratioP1;P2;durP2;ratioP2
10667;SDS011;5382;42.136;24.796;2023-05-21T00:01:15;5.60;;;4.95;;
10667;SDS011;5382;42.136;24.796;2023-05-21T00:03:41;7.07;;;5.15;;
10667;SDS011;5382;42.136;24.796;2023-05-21T00:06:10;5.32;;;4.72;;
10667;SDS011;5382;42.136;24.796;2023-05-21T00:08:39;5.40;;;4.88;;
10667;SDS011;5382;42.136;24.796;2023-05-21T00:11:06;5.95;;;4.53;;
10667;SDS011;5382;42.136;24.796;2023-05-21T00:13:34;5.18;;;4.65;;
10667;SDS011;5382;42.136;24.796;2023-05-21T00:16:02;6.30;;;4.95;;
10667;SDS011;5382;42.136;24.796;2023-05-21T00:18:29;8.75;;;4.82;;
10667;SDS011;5382;42.136;24.796;2023-05-21T00:20:58;8.63;;;5.35;;
10667;SDS011;5382;42.136;24.796;2023-05-21T00:23:25;5.45;;;4.88;;
10667;SDS011;5382;42.136;24.796;2023-05-21T00:25:52;6.93;;;4.93;;
10667;SDS011;5382;42.136;24.796;2023-05-21T00:28:19;9.88;;;5.28;;
10667;SDS011;5382;42.136;24.796;2023-05-21T00:30:47;6.13;;;4.50;;
10667;SDS011;5382;42.136;24.796;2023-05-21T00:33:14;7.45;;;4.38;;
10667;SDS011;5382;42.136;24.796;2023-05-21T00:35:41;6.60;;;4.63;;
10667;SDS011;5382;42.136;24.796;2023-05-21T00:38:07;5.80;;;5.18;;
10667;SDS011;5382;42.136;24.796;2023-05-21T00:40:34;6.60;;;4.80;;
10667;SDS011;5382;42.136;24.796;2023-05-21T00:43:01;5.75;;;5.15;;
10667;SDS011;5382;42.136;24.796;2023-05-21T00:45:28;7.40;;;4.65;;
10667;SDS011;5382;42.136;24.796;2023-05-21T00:47:56;6.72;;;4.80;;
10667;SDS011;5382;42.136;24.796;2023-05-21T00:50:23;5.75;;;5.13;;
10667;SDS011;5382;42.136;24.796;2023-05-21T00:52:50;5.50;;;4.70;;
10667;SDS011;5382;42.136;24.796;2023-05-21T00:55:17;7.75;;;5.50;;
10667;SDS011;5382;42.136;24.796;2023-05-21T00:57:44;6.40;;;4.97;;
10667;SDS011;5382;42.136;24.796;2023-05-21T01:00:12;7.00;;;4.90;;
10667;SDS011;5382;42.136;24.796;2023-05-21T01:02:40;6.80;;;5.47;;
10667;SDS011;5382;42.136;24.796;2023-05-21T01:05:09;5.60;;;5.00;;
10667;SDS011;5382;42.136;24.796;2023-05-21T01:07:37;6.50;;;5.43;;
10667;SDS011;5382;42.136;24.796;2023-05-21T01:10:06;5.90;;;5.10;;
10667;SDS011;5382;42.136;24.796;2023-05-21T01:12:34;7.25;;;5.85;;
10667;SDS011;5382;42.136;24.796;2023-05-21T01:15:05;8.60;;;6.00;;
10667;SDS011;5382;42.136;24.796;2023-05-21T01:17:32;6.40;;;4.45;;
10667;SDS011;5382;42.136;24.796;2023-05-21T01:20:00;5.75;;;5.13;;
10667;SDS011;5382;42.136;24.796;2023-05-21T01:22:34;7.28;;;5.30;;
10667;SDS011;5382;42.136;24.796;2023-05-21T01:25:05;6.45;;;5.30;;
10667;SDS011;5382;42.136;24.796;2023-05-21T01:27:32;8.18;;;5.78;;
10667;SDS011;5382;42.136;24.796;2023-05-21T01:29:59;8.23;;;6.00;;
10667;SDS011;5382;42.136;24.796;2023-05-21T01:32:28;6.07;;;4.63;;
10667;SDS011;5382;42.136;24.796;2023-05-21T01:35:01;7.32;;;5.20;;
10667;SDS011;5382;42.136;24.796;2023-05-21T01:37:34;6.28;;;5.53;;
10667;SDS011;5382;42.136;24.796;2023-05-21T01:40:07;5.95;;;5.10;;
10667;SDS011;5382;42.136;24.796;2023-05-21T01:42:39;7.40;;;6.43;;
10667;SDS011;5382;42.136;24.796;2023-05-21T01:45:09;11.45;;;5.20;;
10667;SDS011;5382;42.136;24.796;2023-05-21T01:47:36;7.07;;;5.63;;
10667;SDS011;5382;42.136;24.796;2023-05-21T01:50:06;6.90;;;5.40;;
10667;SDS011;5382;42.136;24.796;2023-05-21T01:52:34;7.78;;;5.38;;
10667;SDS011;5382;42.136;24.796;2023-05-21T01:55:01;6.40;;;5.55;;
10667;SDS011;5382;42.136;24.796;2023-05-21T01:57:30;6.75;;;4.90;;
10667;SDS011;5382;42.136;24.796;2023-05-21T01:59:56;7.53;;;5.18;;
10667;SDS011;5382;42.136;24.796;2023-05-21T02:02:25;6.93;;;5.22;;
10667;SDS011;5382;42.136;24.796;2023-05-21T02:04:51;11.02;;;5.35;;
10667;SDS011;5382;42.136;24.796;2023-05-21T02:07:18;8.05;;;5.18;;
10667;SDS011;5382;42.136;24.796;2023-05-21T02:09:45;7.03;;;5.60;;
10667;SDS011;5382;42.136;24.796;2023-05-21T02:12:12;6.10;;;4.93;;
10667;SDS011;5382;42.136;24.796;2023-05-21T02:14:40;5.70;;;5.10;;
10667;SDS011;5382;42.136;24.796;2023-05-21T02:17:07;6.13;;;5.07;;
10667;SDS011;5382;42.136;24.796;2023-05-21T02:19:34;6.90;;;5.40;;
10667;SDS011;5382;42.136;24.796;2023-05-21T02:22:01;7.80;;;5.88;;
10667;SDS011;5382;42.136;24.796;2023-05-21T02:24:28;6.80;;;5.63;;
10667;SDS011;5382;42.136;24.796;2023-05-21T02:26:55;8.25;;;5.80;;
10667;SDS011;5382;42.136;24.796;2023-05-21T02:29:22;9.23;;;5.75;;
10667;SDS011;5382;42.136;24.796;2023-05-21T02:31:50;6.80;;;5.57;;
10667;SDS011;5382;42.136;24.796;2023-05-21T02:34:17;7.28;;;5.55;;
10667;SDS011;5382;42.136;24.796;2023-05-21T02:36:45;9.23;;;5.53;;
10667;SDS011;5382;42.136;24.796;2023-05-21T02:39:16;7.07;;;5.47;;
10667;SDS011;5382;42.136;24.796;2023-05-21T02:41:43;7.88;;;6.20;;
10667;SDS011;5382;42.136;24.796;2023-05-21T02:44:10;9.13;;;6.22;;
10667;SDS011;5382;42.136;24.796;2023-05-21T02:46:37;7.45;;;5.78;;
10667;SDS011;5382;42.136;24.796;2023-05-21T02:49:05;8.88;;;5.45;;
10667;SDS011;5382;42.136;24.796;2023-05-21T02:51:32;7.07;;;5.57;;
10667;SDS011;5382;42.136;24.796;2023-05-21T02:53:58;7.90;;;5.90;;
10667;SDS011;5382;42.136;24.796;2023-05-21T02:56:25;5.82;;;5.18;;
10667;SDS011;5382;42.136;24.796;2023-05-21T02:58:52;6.63;;;5.72;;
10667;SDS011;5382;42.136;24.796;2023-05-21T03:01:21;8.07;;;5.72;;
10667;SDS011;5382;42.136;24.796;2023-05-21T03:03:47;6.47;;;5.75;;
10667;SDS011;5382;42.136;24.796;2023-05-21T03:06:16;11.23;;;5.28;;
10667;SDS011;5382;42.136;24.796;2023-05-21T03:08:42;6.85;;;5.32;;
10667;SDS011;5382;42.136;24.796;2023-05-21T03:11:09;7.65;;;5.47;;
10667;SDS011;5382;42.136;24.796;2023-05-21T03:13:36;7.20;;;5.72;;
10667;SDS011;5382;42.136;24.796;2023-05-21T03:16:03;7.80;;;5.13;;
10667;SDS011;5382;42.136;24.796;2023-05-21T03:18:30;7.03;;;5.50;;
10667;SDS011;5382;42.136;24.796;2023-05-21T03:20:57;6.35;;;5.05;;
10667;SDS011;5382;42.136;24.796;2023-05-21T03:23:25;9.63;;;5.43;;
10667;SDS011;5382;42.136;24.796;2023-05-21T03:25:52;6.63;;;5.00;;
10667;SDS011;5382;42.136;24.796;2023-05-21T03:28:19;7.07;;;5.72;;
10667;SDS011;5382;42.136;24.796;2023-05-21T03:30:46;6.97;;;5.40;;
10667;SDS011;5382;42.136;24.796;2023-05-21T03:33:15;8.18;;;5.60;;
10667;SDS011;5382;42.136;24.796;2023-05-21T03:35:42;6.68;;;5.03;;
10667;SDS011;5382;42.136;24.796;2023-05-21T03:38:09;8.55;;;5.05;;
10667;SDS011;5382;42.136;24.796;2023-05-21T03:40:37;5.95;;;4.90;;
10667;SDS011;5382;42.136;24.796;2023-05-21T03:43:04;6.70;;;5.45;;
10667;SDS011;5382;42.136;24.796;2023-05-21T03:45:31;7.30;;;5.78;;
10667;SDS011;5382;42.136;24.796;2023-05-21T03:47:57;8.48;;;5.43;;
10667;SDS011;5382;42.136;24.796;2023-05-21T03:50:25;6.63;;;5.25;;
10667;SDS011;5382;42.136;24.796;2023-05-21T03:52:52;8.80;;;4.97;;
10667;SDS011;5382;42.136;24.796;2023-05-21T03:55:19;6.35;;;4.85;;
10667;SDS011;5382;42.136;24.796;2023-05-21T03:57:47;10.90;;;5.03;;
10667;SDS011;5382;42.136;24.796;2023-05-21T04:00:14;6.07;;;4.93;;
10667;SDS011;5382;42.136;24.796;2023-05-21T04:02:41;7.82;;;5.40;;
10667;SDS011;5382;42.136;24.796;2023-05-21T04:05:08;7.47;;;4.80;;
10667;SDS011;5382;42.136;24.796;2023-05-21T04:07:35;6.63;;;4.40;;
10667;SDS011;5382;42.136;24.796;2023-05-21T04:10:02;6.10;;;5.00;;
10667;SDS011;5382;42.136;24.796;2023-05-21T04:12:30;5.57;;;4.50;;
10667;SDS011;5382;42.136;24.796;2023-05-21T04:14:58;5.28;;;4.60;;
10667;SDS011;5382;42.136;24.796;2023-05-21T04:17:26;4.90;;;4.40;;
10667;SDS011;5382;42.136;24.796;2023-05-21T04:19:53;7.38;;;4.78;;
10667;SDS011;5382;42.136;24.796;2023-05-21T04:22:20;7.38;;;4.45;;
10667;SDS011;5382;42.136;24.796;2023-05-21T04:24:50;7.43;;;4.60;;
10667;SDS011;5382;42.136;24.796;2023-05-21T04:27:19;6.15;;;4.38;;
10667;SDS011;5382;42.136;24.796;2023-05-21T04:29:47;7.00;;;4.53;;
10667;SDS011;5382;42.136;24.796;2023-05-21T04:32:16;6.90;;;5.00;;
10667;SDS011;5382;42.136;24.796;2023-05-21T04:34:43;5.85;;;4.63;;
10667;SDS011;5382;42.136;24.796;2023-05-21T04:37:09;8.82;;;4.88;;
10667;SDS011;5382;42.136;24.796;2023-05-21T04:39:36;8.88;;;4.85;;
10667;SDS011;5382;42.136;24.796;2023-05-21T04:42:05;6.10;;;4.70;;
10667;SDS011;5382;42.136;24.796;2023-05-21T04:44:34;6.55;;;4.70;;
10667;SDS011;5382;42.136;24.796;2023-05-21T04:47:01;10.55;;;5.20;;
10667;SDS011;5382;42.136;24.796;2023-05-21T04:49:29;8.27;;;5.10;;
10667;SDS011;5382;42.136;24.796;2023-05-21T04:51:59;8.57;;;5.05;;
10667;SDS011;5382;42.136;24.796;2023-05-21T04:54:26;5.50;;;4.57;;
10667;SDS011;5382;42.136;24.796;2023-05-21T04:56:52;8.45;;;5.35;;
10667;SDS011;5382;42.136;24.796;2023-05-21T04:59:19;7.07;;;4.53;;
10667;SDS011;5382;42.136;24.796;2023-05-21T05:01:46;7.20;;;4.78;;
10667;SDS011;5382;42.136;24.796;2023-05-21T05:04:13;7.63;;;5.03;;
10667;SDS011;5382;42.136;24.796;2023-05-21T05:06:41;5.55;;;4.25;;
10667;SDS011;5382;42.136;24.796;2023-05-21T05:09:08;5.95;;;4.50;;
10667;SDS011;5382;42.136;24.796;2023-05-21T05:11:35;7.90;;;4.80;;
10667;SDS011;5382;42.136;24.796;2023-05-21T05:14:01;7.07;;;5.00;;
10667;SDS011;5382;42.136;24.796;2023-05-21T05:16:28;8.48;;;4.70;;
10667;SDS011;5382;42.136;24.796;2023-05-21T05:18:55;6.85;;;4.40;;
10667;SDS011;5382;42.136;24.796;2023-05-21T05:21:22;5.32;;;4.60;;
10667;SDS011;5382;42.136;24.796;2023-05-21T05:23:50;6.53;;;4.97;;
10667;SDS011;5382;42.136;24.796;2023-05-21T05:26:17;7.63;;;4.60;;
10667;SDS011;5382;42.136;24.796;2023-05-21T05:28:45;7.32;;;4.97;;
10667;SDS011;5382;42.136;24.796;2023-05-21T05:31:12;6.30;;;4.22;;
10667;SDS011;5382;42.136;24.796;2023-05-21T05:33:39;7.15;;;4.93;;
10667;SDS011;5382;42.136;24.796;2023-05-21T05:36:06;7.20;;;5.13;;
10667;SDS011;5382;42.136;24.796;2023-05-21T05:38:33;6.35;;;5.07;;
10667;SDS011;5382;42.136;24.796;2023-05-21T05:41:01;6.55;;;5.15;;
10667;SDS011;5382;42.136;24.796;2023-05-21T05:43:28;8.77;;;4.55;;
10667;SDS011;5382;42.136;24.796;2023-05-21T05:45:55;9.27;;;4.65;;
10667;SDS011;5382;42.136;24.796;2023-05-21T05:48:22;6.70;;;4.90;;
10667;SDS011;5382;42.136;24.796;2023-05-21T05:50:48;7.93;;;5.10;;
10667;SDS011;5382;42.136;24.796;2023-05-21T05:53:18;7.65;;;4.28;;
10667;SDS011;5382;42.136;24.796;2023-05-21T05:55:45;9.45;;;4.80;;
10667;SDS011;5382;42.136;24.796;2023-05-21T05:58:13;5.57;;;4.40;;
10667;SDS011;5382;42.136;24.796;2023-05-21T06:00:41;6.13;;;4.57;;
10667;SDS011;5382;42.136;24.796;2023-05-21T06:03:07;6.85;;;5.05;;
10667;SDS011;5382;42.136;24.796;2023-05-21T06:05:36;7.40;;;5.20;;
10667;SDS011;5382;42.136;24.796;2023-05-21T06:08:03;9.93;;;5.30;;
10667;SDS011;5382;42.136;24.796;2023-05-21T06:10:30;7.55;;;5.13;;
10667;SDS011;5382;42.136;24.796;2023-05-21T06:12:57;10.05;;;4.80;;
10667;SDS011;5382;42.136;24.796;2023-05-21T06:15:25;6.85;;;5.03;;
10667;SDS011;5382;42.136;24.796;2023-05-21T06:17:52;5.88;;;4.72;;
10667;SDS011;5382;42.136;24.796;2023-05-21T06:20:18;7.30;;;4.90;;
10667;SDS011;5382;42.136;24.796;2023-05-21T06:22:45;8.05;;;5.03;;
10667;SDS011;5382;42.136;24.796;2023-05-21T06:25:12;6.85;;;5.28;;
10667;SDS011;5382;42.136;24.796;2023-05-21T06:27:40;7.05;;;5.45;;
10667;SDS011;5382;42.136;24.796;2023-05-21T06:30:07;8.18;;;5.07;;
10667;SDS011;5382;42.136;24.796;2023-05-21T06:32:35;11.00;;;5.03;;
10667;SDS011;5382;42.136;24.796;2023-05-21T06:35:02;5.57;;;4.53;;
10667;SDS011;5382;42.136;24.796;2023-05-21T06:37:29;6.15;;;4.90;;
10667;SDS011;5382;42.136;24.796;2023-05-21T06:39:56;8.75;;;5.18;;
10667;SDS011;5382;42.136;24.796;2023-05-21T06:42:23;7.55;;;5.13;;
10667;SDS011;5382;42.136;24.796;2023-05-21T06:44:50;8.75;;;5.70;;
10667;SDS011;5382;42.136;24.796;2023-05-21T06:47:16;6.55;;;5.50;;
10667;SDS011;5382;42.136;24.796;2023-05-21T06:49:44;7.55;;;5.85;;
10667;SDS011;5382;42.136;24.796;2023-05-21T06:52:11;8.90;;;6.10;;
10667;SDS011;5382;42.136;24.796;2023-05-21T06:54:38;10.13;;;6.75;;
10667;SDS011;5382;42.136;24.796;2023-05-21T06:57:05;8.30;;;6.07;;
10667;SDS011;5382;42.136;24.796;2023-05-21T06:59:32;10.90;;;7.03;;
10667;SDS011;5382;42.136;24.796;2023-05-21T07:01:58;9.65;;;6.88;;
10667;SDS011;5382;42.136;24.796;2023-05-21T07:04:25;9.00;;;6.40;;
10667;SDS011;5382;42.136;24.796;2023-05-21T07:06:53;9.98;;;6.82;;
10667;SDS011;5382;42.136;24.796;2023-05-21T07:09:20;11.23;;;6.53;;
10667;SDS011;5382;42.136;24.796;2023-05-21T07:11:47;8.70;;;6.90;;
10667;SDS011;5382;42.136;24.796;2023-05-21T07:14:14;7.03;;;5.95;;
10667;SDS011;5382;42.136;24.796;2023-05-21T07:16:40;7.35;;;5.43;;
10667;SDS011;5382;42.136;24.796;2023-05-21T07:19:07;7.18;;;5.35;;
10667;SDS011;5382;42.136;24.796;2023-05-21T07:21:34;7.28;;;4.70;;
10667;SDS011;5382;42.136;24.796;2023-05-21T07:24:02;6.75;;;5.10;;
10667;SDS011;5382;42.136;24.796;2023-05-21T07:26:29;12.85;;;5.50;;
10667;SDS011;5382;42.136;24.796;2023-05-21T07:28:56;7.55;;;4.53;;
10667;SDS011;5382;42.136;24.796;2023-05-21T07:31:22;8.52;;;4.30;;
10667;SDS011;5382;42.136;24.796;2023-05-21T07:33:50;7.65;;;4.88;;
10667;SDS011;5382;42.136;24.796;2023-05-21T07:36:16;6.07;;;4.60;;
10667;SDS011;5382;42.136;24.796;2023-05-21T07:38:43;7.85;;;4.97;;
10667;SDS011;5382;42.136;24.796;2023-05-21T07:41:11;12.43;;;4.85;;
10667;SDS011;5382;42.136;24.796;2023-05-21T07:43:38;7.18;;;5.28;;
10667;SDS011;5382;42.136;24.796;2023-05-21T07:46:05;7.60;;;4.13;;
10667;SDS011;5382;42.136;24.796;2023-05-21T07:48:32;7.20;;;4.47;;
10667;SDS011;5382;42.136;24.796;2023-05-21T07:50:59;7.53;;;3.90;;
10667;SDS011;5382;42.136;24.796;2023-05-21T07:53:26;8.18;;;4.30;;
10667;SDS011;5382;42.136;24.796;2023-05-21T07:55:56;8.10;;;4.10;;
10667;SDS011;5382;42.136;24.796;2023-05-21T07:58:24;6.13;;;4.07;;
10667;SDS011;5382;42.136;24.796;2023-05-21T08:00:51;11.05;;;4.70;;
10667;SDS011;5382;42.136;24.796;2023-05-21T08:03:18;4.80;;;3.58;;
10667;SDS011;5382;42.136;24.796;2023-05-21T08:05:45;6.65;;;3.80;;
10667;SDS011;5382;42.136;24.796;2023-05-21T08:08:14;5.43;;;3.42;;
10667;SDS011;5382;42.136;24.796;2023-05-21T08:10:41;4.28;;;3.40;;
10667;SDS011;5382;42.136;24.796;2023-05-21T08:13:08;7.97;;;3.47;;
10667;SDS011;5382;42.136;24.796;2023-05-21T08:15:37;3.50;;;3.20;;
10667;SDS011;5382;42.136;24.796;2023-05-21T08:18:04;7.43;;;3.80;;
10667;SDS011;5382;42.136;24.796;2023-05-21T08:20:31;6.15;;;2.83;;
10667;SDS011;5382;42.136;24.796;2023-05-21T08:22:58;7.28;;;3.55;;
10667;SDS011;5382;42.136;24.796;2023-05-21T08:25:25;6.38;;;3.55;;
10667;SDS011;5382;42.136;24.796;2023-05-21T08:27:52;6.53;;;3.85;;
10667;SDS011;5382;42.136;24.796;2023-05-21T08:30:19;5.70;;;3.55;;
10667;SDS011;5382;42.136;24.796;2023-05-21T08:32:47;7.53;;;3.65;;
10667;SDS011;5382;42.136;24.796;2023-05-21T08:35:14;4.60;;;3.97;;
10667;SDS011;5382;42.136;24.796;2023-05-21T08:37:41;5.28;;;3.28;;
10667;SDS011;5382;42.136;24.796;2023-05-21T08:40:08;7.97;;;3.67;;
10667;SDS011;5382;42.136;24.796;2023-05-21T08:42:38;9.00;;;3.70;;
10667;SDS011;5382;42.136;24.796;2023-05-21T08:45:07;5.57;;;3.33;;
10667;SDS011;5382;42.136;24.796;2023-05-21T08:47:37;6.93;;;3.55;;
10667;SDS011;5382;42.136;24.796;2023-05-21T08:50:09;13.52;;;4.13;;
10667;SDS011;5382;42.136;24.796;2023-05-21T08:52:37;6.90;;;4.72;;
10667;SDS011;5382;42.136;24.796;2023-05-21T08:55:04;5.85;;;3.70;;
10667;SDS011;5382;42.136;24.796;2023-05-21T08:57:31;7.63;;;3.92;;
10667;SDS011;5382;42.136;24.796;2023-05-21T08:59:58;7.82;;;3.97;;
10667;SDS011;5382;42.136;24.796;2023-05-21T09:02:26;8.18;;;5.20;;
10667;SDS011;5382;42.136;24.796;2023-05-21T09:04:54;6.68;;;4.25;;
10667;SDS011;5382;42.136;24.796;2023-05-21T09:07:24;6.97;;;3.63;;
10667;SDS011;5382;42.136;24.796;2023-05-21T09:09:54;6.25;;;3.67;;
10667;SDS011;5382;42.136;24.796;2023-05-21T09:15:08;4.32;;;3.90;;
10667;SDS011;5382;42.136;24.796;2023-05-21T09:17:35;5.32;;;3.20;;
10667;SDS011;5382;42.136;24.796;2023-05-21T09:20:09;5.90;;;4.68;;
10667;SDS011;5382;42.136;24.796;2023-05-21T09:22:40;6.97;;;4.15;;
10667;SDS011;5382;42.136;24.796;2023-05-21T09:25:08;5.53;;;3.60;;
10667;SDS011;5382;42.136;24.796;2023-05-21T09:27:36;6.13;;;3.47;;
10667;SDS011;5382;42.136;24.796;2023-05-21T09:30:04;6.93;;;3.85;;
10667;SDS011;5382;42.136;24.796;2023-05-21T09:32:35;6.38;;;3.85;;
10667;SDS011;5382;42.136;24.796;2023-05-21T09:35:06;5.68;;;3.88;;
10667;SDS011;5382;42.136;24.796;2023-05-21T09:37:37;7.80;;;4.28;;
10667;SDS011;5382;42.136;24.796;2023-05-21T09:40:12;7.45;;;4.90;;
10667;SDS011;5382;42.136;24.796;2023-05-21T09:42:41;7.55;;;4.22;;
10667;SDS011;5382;42.136;24.796;2023-05-21T09:45:09;7.93;;;5.70;;
10667;SDS011;5382;42.136;24.796;2023-05-21T09:47:39;8.00;;;4.30;;
10667;SDS011;5382;42.136;24.796;2023-05-21T09:50:08;4.50;;;3.45;;
10667;SDS011;5382;42.136;24.796;2023-05-21T09:52:35;5.75;;;3.13;;
10667;SDS011;5382;42.136;24.796;2023-05-21T09:55:02;5.35;;;4.00;;
10667;SDS011;5382;42.136;24.796;2023-05-21T09:57:31;6.95;;;3.97;;
10667;SDS011;5382;42.136;24.796;2023-05-21T09:59:57;6.32;;;3.80;;
10667;SDS011;5382;42.136;24.796;2023-05-21T10:02:24;8.00;;;3.63;;
10667;SDS011;5382;42.136;24.796;2023-05-21T10:04:51;5.43;;;3.28;;
10667;SDS011;5382;42.136;24.796;2023-05-21T10:07:20;7.30;;;3.05;;
10667;SDS011;5382;42.136;24.796;2023-05-21T10:09:50;9.35;;;3.75;;
10667;SDS011;5382;42.136;24.796;2023-05-21T10:12:19;6.45;;;3.53;;
10667;SDS011;5382;42.136;24.796;2023-05-21T10:14:50;5.82;;;3.50;;
10667;SDS011;5382;42.136;24.796;2023-05-21T10:17:24;7.38;;;3.67;;
10667;SDS011;5382;42.136;24.796;2023-05-21T10:19:53;7.40;;;3.50;;
10667;SDS011;5382;42.136;24.796;2023-05-21T10:22:21;9.73;;;4.03;;
10667;SDS011;5382;42.136;24.796;2023-05-21T10:24:50;6.22;;;3.03;;
10667;SDS011;5382;42.136;24.796;2023-05-21T10:27:17;7.28;;;3.35;;
10667;SDS011;5382;42.136;24.796;2023-05-21T10:29:45;6.95;;;3.90;;
10667;SDS011;5382;42.136;24.796;2023-05-21T10:32:15;7.28;;;3.70;;
10667;SDS011;5382;42.136;24.796;2023-05-21T10:34:42;4.55;;;3.30;;
10667;SDS011;5382;42.136;24.796;2023-05-21T10:37:09;5.93;;;3.75;;
10667;SDS011;5382;42.136;24.796;2023-05-21T10:39:38;5.03;;;3.35;;
10667;SDS011;5382;42.136;24.796;2023-05-21T10:42:08;5.97;;;3.55;;
10667;SDS011;5382;42.136;24.796;2023-05-21T10:44:49;4.40;;;3.17;;
10667;SDS011;5382;42.136;24.796;2023-05-21T10:47:36;5.57;;;3.55;;
10667;SDS011;5382;42.136;24.796;2023-05-21T10:50:19;5.38;;;3.50;;
10667;SDS011;5382;42.136;24.796;2023-05-21T10:53:00;5.15;;;2.88;;
10667;SDS011;5382;42.136;24.796;2023-05-21T10:55:38;10.93;;;3.40;;
10667;SDS011;5382;42.136;24.796;2023-05-21T10:58:24;5.45;;;3.22;;
10667;SDS011;5382;42.136;24.796;2023-05-21T11:01:17;5.90;;;3.27;;
10667;SDS011;5382;42.136;24.796;2023-05-21T11:03:46;4.13;;;3.45;;
10667;SDS011;5382;42.136;24.796;2023-05-21T11:06:20;7.28;;;3.40;;
10667;SDS011;5382;42.136;24.796;2023-05-21T11:08:49;6.90;;;5.15;;
10667;SDS011;5382;42.136;24.796;2023-05-21T11:17:00;6.72;;;3.58;;
10667;SDS011;5382;42.136;24.796;2023-05-21T11:19:35;10.00;;;3.15;;
10667;SDS011;5382;42.136;24.796;2023-05-21T11:22:06;6.78;;;3.53;;
10667;SDS011;5382;42.136;24.796;2023-05-21T11:24:39;4.53;;;3.30;;
10667;SDS011;5382;42.136;24.796;2023-05-21T11:27:06;6.78;;;3.10;;
10667;SDS011;5382;42.136;24.796;2023-05-21T11:29:40;7.68;;;3.45;;
10667;SDS011;5382;42.136;24.796;2023-05-21T11:32:09;6.22;;;3.22;;
10667;SDS011;5382;42.136;24.796;2023-05-21T11:34:45;5.70;;;3.17;;
10667;SDS011;5382;42.136;24.796;2023-05-21T11:37:22;5.47;;;3.10;;
10667;SDS011;5382;42.136;24.796;2023-05-21T11:39:54;7.47;;;3.40;;
10667;SDS011;5382;42.136;24.796;2023-05-21T11:42:26;4.88;;;3.13;;
10667;SDS011;5382;42.136;24.796;2023-05-21T11:44:58;4.32;;;3.00;;
10667;SDS011;5382;42.136;24.796;2023-05-21T11:47:26;7.88;;;3.83;;
10667;SDS011;5382;42.136;24.796;2023-05-21T11:49:55;17.27;;;13.45;;
10667;SDS011;5382;42.136;24.796;2023-05-21T11:52:23;5.18;;;2.90;;
10667;SDS011;5382;42.136;24.796;2023-05-21T11:54:53;4.50;;;3.28;;
10667;SDS011;5382;42.136;24.796;2023-05-21T11:57:21;4.63;;;3.33;;
10667;SDS011;5382;42.136;24.796;2023-05-21T11:59:50;6.03;;;3.38;;
10667;SDS011;5382;42.136;24.796;2023-05-21T12:02:18;5.43;;;3.80;;
10667;SDS011;5382;42.136;24.796;2023-05-21T12:04:46;5.82;;;3.20;;
10667;SDS011;5382;42.136;24.796;2023-05-21T12:07:16;5.70;;;3.50;;
10667;SDS011;5382;42.136;24.796;2023-05-21T12:09:45;8.55;;;3.40;;
10667;SDS011;5382;42.136;24.796;2023-05-21T12:12:13;5.57;;;3.47;;
10667;SDS011;5382;42.136;24.796;2023-05-21T12:14:42;12.77;;;3.60;;
10667;SDS011;5382;42.136;24.796;2023-05-21T12:17:11;4.72;;;3.42;;
10667;SDS011;5382;42.136;24.796;2023-05-21T12:19:41;8.38;;;3.38;;
10667;SDS011;5382;42.136;24.796;2023-05-21T12:22:08;5.78;;;3.40;;
10667;SDS011;5382;42.136;24.796;2023-05-21T12:24:36;8.50;;;3.40;;
10667;SDS011;5382;42.136;24.796;2023-05-21T12:27:04;6.22;;;3.95;;
10667;SDS011;5382;42.136;24.796;2023-05-21T12:29:34;5.75;;;3.63;;
10667;SDS011;5382;42.136;24.796;2023-05-21T12:32:02;6.25;;;4.60;;
10667;SDS011;5382;42.136;24.796;2023-05-21T12:34:38;6.93;;;4.38;;
10667;SDS011;5382;42.136;24.796;2023-05-21T12:37:07;5.93;;;3.17;;
10667;SDS011;5382;42.136;24.796;2023-05-21T12:39:39;8.57;;;3.88;;
10667;SDS011;5382;42.136;24.796;2023-05-21T12:42:06;6.90;;;3.50;;
10667;SDS011;5382;42.136;24.796;2023-05-21T12:44:33;7.35;;;4.53;;
10667;SDS011;5382;42.136;24.796;2023-05-21T12:47:00;9.98;;;4.15;;
10667;SDS011;5382;42.136;24.796;2023-05-21T12:49:34;9.68;;;4.32;;
10667;SDS011;5382;42.136;24.796;2023-05-21T12:52:03;9.85;;;4.45;;
10667;SDS011;5382;42.136;24.796;2023-05-21T12:54:33;8.75;;;3.83;;
10667;SDS011;5382;42.136;24.796;2023-05-21T12:57:06;10.32;;;4.55;;
10667;SDS011;5382;42.136;24.796;2023-05-21T12:59:46;6.38;;;4.03;;
10667;SDS011;5382;42.136;24.796;2023-05-21T13:02:23;6.05;;;4.10;;
10667;SDS011;5382;42.136;24.796;2023-05-21T13:04:54;8.18;;;4.45;;
10667;SDS011;5382;42.136;24.796;2023-05-21T13:07:22;8.35;;;4.50;;
10667;SDS011;5382;42.136;24.796;2023-05-21T13:09:50;5.15;;;4.05;;
10667;SDS011;5382;42.136;24.796;2023-05-21T13:12:19;5.75;;;3.72;;
10667;SDS011;5382;42.136;24.796;2023-05-21T13:14:47;8.20;;;3.97;;
10667;SDS011;5382;42.136;24.796;2023-05-21T13:17:14;7.10;;;4.18;;
10667;SDS011;5382;42.136;24.796;2023-05-21T13:19:41;9.00;;;3.55;;
10667;SDS011;5382;42.136;24.796;2023-05-21T13:22:08;7.00;;;3.35;;
10667;SDS011;5382;42.136;24.796;2023-05-21T13:24:35;9.00;;;3.88;;
10667;SDS011;5382;42.136;24.796;2023-05-21T13:27:03;4.70;;;3.30;;
10667;SDS011;5382;42.136;24.796;2023-05-21T13:29:32;7.28;;;3.90;;
10667;SDS011;5382;42.136;24.796;2023-05-21T13:32:00;5.97;;;4.00;;
10667;SDS011;5382;42.136;24.796;2023-05-21T13:34:26;7.65;;;3.65;;
10667;SDS011;5382;42.136;24.796;2023-05-21T13:36:53;5.38;;;3.50;;
10667;SDS011;5382;42.136;24.796;2023-05-21T13:39:20;4.82;;;3.58;;
10667;SDS011;5382;42.136;24.796;2023-05-21T13:41:50;5.88;;;3.30;;
10667;SDS011;5382;42.136;24.796;2023-05-21T13:44:17;7.90;;;3.50;;
10667;SDS011;5382;42.136;24.796;2023-05-21T13:46:45;6.43;;;3.60;;
10667;SDS011;5382;42.136;24.796;2023-05-21T13:49:12;4.95;;;2.80;;
10667;SDS011;5382;42.136;24.796;2023-05-21T13:51:39;9.88;;;4.00;;
10667;SDS011;5382;42.136;24.796;2023-05-21T13:54:06;4.80;;;3.38;;
10667;SDS011;5382;42.136;24.796;2023-05-21T13:56:33;7.43;;;3.78;;
10667;SDS011;5382;42.136;24.796;2023-05-21T13:59:00;7.30;;;3.50;;
10667;SDS011;5382;42.136;24.796;2023-05-21T14:01:27;8.48;;;4.03;;
10667;SDS011;5382;42.136;24.796;2023-05-21T14:03:55;6.28;;;4.00;;
10667;SDS011;5382;42.136;24.796;2023-05-21T14:06:22;8.40;;;3.95;;
10667;SDS011;5382;42.136;24.796;2023-05-21T14:08:49;9.05;;;3.28;;
10667;SDS011;5382;42.136;24.796;2023-05-21T14:11:16;6.30;;;3.20;;
10667;SDS011;5382;42.136;24.796;2023-05-21T14:13:43;7.22;;;3.33;;
10667;SDS011;5382;42.136;24.796;2023-05-21T14:16:10;4.70;;;3.15;;
10667;SDS011;5382;42.136;24.796;2023-05-21T14:18:36;6.78;;;3.42;;
10667;SDS011;5382;42.136;24.796;2023-05-21T14:21:05;5.38;;;3.33;;
10667;SDS011;5382;42.136;24.796;2023-05-21T14:23:32;4.75;;;3.42;;
10667;SDS011;5382;42.136;24.796;2023-05-21T14:25:58;7.93;;;3.55;;
10667;SDS011;5382;42.136;24.796;2023-05-21T14:28:25;6.10;;;3.80;;
10667;SDS011;5382;42.136;24.796;2023-05-21T14:30:52;12.48;;;4.53;;
10667;SDS011;5382;42.136;24.796;2023-05-21T14:33:19;8.98;;;3.53;;
10667;SDS011;5382;42.136;24.796;2023-05-21T14:35:45;6.15;;;3.40;;
10667;SDS011;5382;42.136;24.796;2023-05-21T14:38:13;7.15;;;3.90;;
10667;SDS011;5382;42.136;24.796;2023-05-21T14:40:40;6.07;;;3.72;;
10667;SDS011;5382;42.136;24.796;2023-05-21T14:43:07;5.78;;;3.65;;
10667;SDS011;5382;42.136;24.796;2023-05-21T14:45:34;7.38;;;3.67;;
10667;SDS011;5382;42.136;24.796;2023-05-21T14:48:00;8.70;;;4.03;;
10667;SDS011;5382;42.136;24.796;2023-05-21T14:50:32;6.05;;;3.50;;
10667;SDS011;5382;42.136;24.796;2023-05-21T14:53:02;7.57;;;4.50;;
10667;SDS011;5382;42.136;24.796;2023-05-21T14:55:30;8.82;;;4.22;;
10667;SDS011;5382;42.136;24.796;2023-05-21T14:57:58;8.25;;;4.15;;
10667;SDS011;5382;42.136;24.796;2023-05-21T15:00:25;5.68;;;4.07;;
10667;SDS011;5382;42.136;24.796;2023-05-21T15:02:52;9.07;;;4.82;;